AirNav   Pilot Hours Calculator
 
 424 users online  

SC82 Oakhill Airpark
Williamson, South Carolina, USA

GOING TO WILLIAMSON?


FAA INFORMATION EFFECTIVE 23 MAY 2019

Location

FAA Identifier: SC82
Lat/Long: 34-35-07.8600N / 082-21-08.2200W
34-35.131000N / 082-21.137000W
34.5855167 / -82.3522833
(estimated)
Elevation: 837 ft. / 255 m (estimated)
Variation: 04W (1990)
From city: 8 miles E of WILLIAMSON, SC
Time zone: UTC -4 (UTC -5 during Standard Time)
Zip code: 29697

Airport Operations

Airport use: Private use. Permission required prior to landing
Activation date: 04/1993
Control tower: no
ARTCC: ATLANTA CENTER
FSS: ANDERSON FLIGHT SERVICE STATION
Attendance: UNATNDD
Wind indicator: yes
Segmented circle: no
Lights: ACTVT LIRL RY 10/28 122.9.

Airport Communications

WX AWOS-3 at GYH (10 nm N): 127.325 (864-277-5674)
WX ASOS at GMU (16 nm N): 127.075 (864-239-0014)
WX ASOS at AND (18 nm W): 120.675 (864-226-9522)
WX ASOS at GSP (20 nm N): 134.25 (864-879-0614)

Nearby radio navigation aids

VOR radial/distance  VOR name  Freq  Var
GRDr335/22.3GREENWOOD VORTAC115.5001W
ELWr065/23.6ELECTRIC CITY VORTAC108.6000E
SPAr220/34.1SPARTANBURG VORTAC115.7002W

 
NDB name  Hdg/Dist  Freq  Var  ID
DYANA149/7.833804WGY --. -.--
JUDKY186/11.752105WGM --. --
CORONACA334/23.823907WGIW --. .. .--
FAIRMONT229/26.224805WFRT ..-. .-. -
UNION COUNTY266/35.532606WUOT ..- --- -
ENOREE302/39.127807WEOE . --- .

Airport Services

Runway Information

Runway 10/28

Dimensions: 2400 x 100 ft. / 732 x 30 m
Surface: turf, in good condition
Runway edge lights: low intensity
RUNWAY 10  RUNWAY 28
Traffic pattern: leftleft
Obstructions: 50 ft. trees, 1000 ft. from runway50 ft. trees, 800 ft. from runway

Airport Ownership and Management from official FAA records

Ownership: Privately-owned
Owner: OAKHILL AIRPARK PROPERTY OWNERS
2 AERONCA ROAD
BELTON, SC 29627
Phone 864-299-6018
Manager: MICHAEL JODOIN
21 AERONCA ROAD
BELTON, SC 29627
Phone (864) 419-8565

Airport Operational Statistics

Aircraft based on the field: 15
Single engine airplanes: 13
Multi engine airplanes: 1
Helicopters: 1
    

Instrument Procedures

There are no published instrument procedures at SC82.

Some nearby airports with instrument procedures:

KGYH - Donaldson Field Airport (10 nm N)
KGMU - Greenville Downtown Airport (16 nm N)
KAND - Anderson Regional Airport (18 nm W)
KGSP - Greenville Spartanburg International Airport (20 nm N)
KLUX - Laurens County Airport (21 nm E)
 
Loc | Ops | Rwys | IFR | FBO | Links
Com | Nav | Svcs | Stats | Notes
Aerial photo
WARNING: Photo may not be current or correct
Aerial photo of SC82 (Oakhill Airpark)
Photo by Chris Goodwin
Photo taken 16-Sep-2016
looking east

Do you have a better or more recent aerial photo of Oakhill Airpark that you would like to share? If so, please send us your photo.

 
Sectional chart

 
Airport distance calculator
Flying to Oakhill Airpark? Find the distance to fly.

From to SC82

Sunrise and sunset
Times for 18-Jun-2019
 Local
(UTC-4)
 Zulu
(UTC)
Morning civil twilight05:4809:48
Sunrise06:1710:17
Sunset20:4400:44
Evening civil twilight21:1301:13

Current date and time
Zulu (UTC)  18-Jun-2019 05:43:30
Local (UTC-4)  18-Jun-2019 01:43:30
 
METAR
KGYH 
10nm N 
180047Z 16008KT 10SM CLR 28/21 A3004 RMK LAST
KGMU 
16nm N 
180453Z AUTO 02007KT 10SM -RA FEW038 BKN045 OVC080 23/21 A3009 RMK AO2 LTG DSNT NE RAB02 TSB03E18 SLP178 P0000 T02330206 403390228
KAND 
19nm W 
180456Z AUTO 00000KT 10SM FEW036 SCT050 BKN080 26/22 A3007 RMK AO2 SLP171 T02560217 403330206
KGSP 
20nm N 
180453Z AUTO 34005KT 10SM -RA SCT038 BKN045 OVC055 22/20 A3009 RMK AO2 LTG DSNT N AND NE RAB10 TSB06E32 SLP178 P0001 T02220200 403280222
KLUX 
21nm E 
172155Z AUTO 19007KT 10SM CLR 32/20 A3000 RMK AO2 LTG DSNT NE
TAF
KGMU 
16nm N 
171731Z 1718/1818 21010G16KT P6SM SCT050 FM172000 21010G16KT P6SM VCTS SCT040CB FM180100 20005KT P6SM VCTS SCT040CB TEMPO 1803/1807 3SM -TSRA BKN040CB FM180900 20005KT P6SM FEW040
KAND 
19nm W 
171731Z 1718/1818 21007KT P6SM FEW040 FM172000 19008G15KT P6SM VCTS SCT050CB FM180100 19007KT P6SM VCSH SCT050 FM180600 19006KT P6SM SCT050
NOTAMs
Click for the latest NOTAMs
NOTAMs are issued by the DoD/FAA and will open in a separate window not controlled by AirNav.

 

 
 

Would you like to see your business listed on this page?

 If your business provides an interesting product or service to pilots, flight crews, aircraft, or users of the Oakhill Airpark, you should consider listing it here.  To start the listing process, click on the button below
 
Add a business
 

Other Pages about Oakhill Airpark

Update a link
 
Copyright © AirNav, LLC. All rights reserved. Privacy Policy  Contact